Time;durP1;ratioP1;P1;durP2;ratioP2;P2;SDS_P1;SDS_P2;PMS_P1;PMS_P2;Temp;Humidity;BMP_temperature;BMP_pressure;BME280_temperature;BME280_humidity;BME280_pressure;Samples;Min_cycle;Max_cycle;Signal;HPM_P1;HPM_P2
2023/09/23 00:00:41;;;;;;;13.73;13.23;;;14.70;99.90;;;;;;5071320;28;20549;-62
2023/09/23 00:03:08;;;;;;;16.77;16.17;;;14.50;99.90;;;;;;5073593;28;20196;-62
2023/09/23 00:05:39;;;;;;;17.37;16.77;;;14.40;99.90;;;;;;5071876;28;20206;-62
2023/09/23 00:08:06;;;;;;;17.77;17.10;;;14.40;99.90;;;;;;5070971;28;20199;-62
2023/09/23 00:10:34;;;;;;;15.90;15.30;;;14.30;99.90;;;;;;5072852;28;20257;-63
2023/09/23 00:13:01;;;;;;;18.33;17.73;;;14.20;99.90;;;;;;5071579;28;20669;-63
2023/09/23 00:15:28;;;;;;;18.48;17.83;;;14.20;99.90;;;;;;5072032;28;20199;-64
2023/09/23 00:17:55;;;;;;;18.80;18.20;;;14.10;99.90;;;;;;5072174;28;20215;-63
2023/09/23 00:20:22;;;;;;;16.67;16.07;;;14.00;99.90;;;;;;5069907;28;20219;-63
2023/09/23 00:22:54;;;;;;;15.87;15.30;;;14.00;99.90;;;;;;5070138;28;20238;-63
2023/09/23 00:25:23;;;;;;;17.00;16.40;;;14.10;99.90;;;;;;5073099;28;20538;-63
2023/09/23 00:27:54;;;;;;;16.40;15.80;;;14.00;99.90;;;;;;5069179;28;20218;-63
2023/09/23 00:30:22;;;;;;;16.85;16.27;;;14.00;99.90;;;;;;5072624;28;20247;-63
2023/09/23 00:32:49;;;;;;;14.25;13.75;;;14.00;99.90;;;;;;5072640;28;20250;-63
2023/09/23 00:35:18;;;;;;;16.37;15.77;;;13.90;99.90;;;;;;5066633;28;20206;-63
2023/09/23 00:37:48;;;;;;;15.67;15.17;;;13.80;99.90;;;;;;5068756;28;20203;-64
2023/09/23 00:40:23;;;;;;;14.00;13.50;;;13.80;99.90;;;;;;5069275;28;20227;-63
2023/09/23 00:42:50;;;;;;;14.10;13.60;;;13.80;99.90;;;;;;5068760;28;20211;-64
2023/09/23 00:45:19;;;;;;;12.63;12.23;;;13.70;99.90;;;;;;5071982;28;20548;-64
2023/09/23 00:47:47;;;;;;;14.27;13.77;;;13.70;99.90;;;;;;5071460;28;20207;-62
2023/09/23 00:50:19;;;;;;;14.50;14.00;;;13.70;99.90;;;;;;5072190;28;20694;-63
2023/09/23 00:52:48;;;;;;;13.48;12.98;;;13.60;99.90;;;;;;5069313;28;20223;-63
2023/09/23 00:55:17;;;;;;;12.88;12.48;;;13.60;99.90;;;;;;5068158;28;20207;-63
2023/09/23 00:57:48;;;;;;;14.55;14.05;;;13.50;99.90;;;;;;5069159;28;20226;-63
2023/09/23 01:00:22;;;;;;;16.73;16.13;;;13.50;99.90;;;;;;5072296;28;20231;-64
2023/09/23 01:02:49;;;;;;;13.93;13.43;;;13.40;99.90;;;;;;5072397;28;20206;-62
2023/09/23 01:05:18;;;;;;;15.90;15.37;;;13.30;99.90;;;;;;5071374;28;20942;-62
2023/09/23 01:07:48;;;;;;;15.50;15.00;;;13.30;99.90;;;;;;5070181;28;20553;-63
2023/09/23 01:10:18;;;;;;;14.53;14.03;;;13.30;99.90;;;;;;5067633;28;20227;-61
2023/09/23 01:12:46;;;;;;;13.35;12.95;;;13.30;99.90;;;;;;5071334;28;20207;-63
2023/09/23 01:15:16;;;;;;;15.50;15.00;;;13.30;99.90;;;;;;5076216;28;20207;-63
2023/09/23 01:17:49;;;;;;;14.63;14.13;;;13.30;99.90;;;;;;5082416;28;20245;-63
2023/09/23 01:20:16;;;;;;;14.80;14.30;;;13.30;99.90;;;;;;5082582;28;20281;-63
2023/09/23 01:22:46;;;;;;;14.77;14.27;;;13.30;99.90;;;;;;5074172;28;20261;-63
2023/09/23 01:25:13;;;;;;;15.97;15.37;;;13.20;99.90;;;;;;5068153;28;20686;-63
2023/09/23 01:27:40;;;;;;;15.17;14.67;;;13.10;99.90;;;;;;5072810;28;20211;-64
2023/09/23 01:30:08;;;;;;;13.53;13.10;;;13.10;99.90;;;;;;5067254;28;20227;-63
2023/09/23 01:32:46;;;;;;;17.47;16.77;;;13.00;99.90;;;;;;5071173;28;20207;-63
2023/09/23 01:35:15;;;;;;;17.37;16.77;;;13.00;99.90;;;;;;5070784;28;20222;-62
2023/09/23 01:37:42;;;;;;;15.07;14.57;;;13.00;99.90;;;;;;5064285;28;20753;-62
2023/09/23 01:40:14;;;;;;;15.60;15.10;;;12.90;99.90;;;;;;5067490;28;20303;-63
2023/09/23 01:42:41;;;;;;;14.47;13.93;;;12.90;99.90;;;;;;5073301;28;20204;-65
2023/09/23 01:45:10;;;;;;;15.10;14.60;;;12.90;99.90;;;;;;5092961;28;20207;-62
2023/09/23 01:47:37;;;;;;;14.63;14.13;;;12.90;99.90;;;;;;5092654;28;20270;-62
2023/09/23 01:50:04;;;;;;;14.63;14.13;;;12.90;99.90;;;;;;5090783;28;20317;-62
2023/09/23 01:52:32;;;;;;;16.70;16.10;;;13.00;99.90;;;;;;5088733;28;20235;-63
2023/09/23 01:54:59;;;;;;;14.20;13.70;;;12.90;99.90;;;;;;5088880;28;20221;-62
2023/09/23 01:57:27;;;;;;;14.00;13.50;;;12.90;99.90;;;;;;5070764;28;20211;-63
2023/09/23 01:59:54;;;;;;;14.67;14.17;;;13.00;99.90;;;;;;5070543;28;20241;-63
2023/09/23 02:02:20;;;;;;;14.70;14.20;;;13.00;99.90;;;;;;5070490;28;20208;-62
2023/09/23 02:04:48;;;;;;;13.83;13.33;;;13.00;99.90;;;;;;5070502;28;20209;-62
2023/09/23 02:07:14;;;;;;;14.63;14.13;;;12.90;99.90;;;;;;5070722;28;20207;-63
2023/09/23 02:09:41;;;;;;;14.73;14.23;;;12.90;99.90;;;;;;5070465;28;20236;-64
2023/09/23 02:12:08;;;;;;;14.90;14.40;;;12.80;99.90;;;;;;5070404;28;20210;-62
2023/09/23 02:14:36;;;;;;;14.63;14.13;;;12.80;99.90;;;;;;5070222;28;20310;-62
2023/09/23 02:17:03;;;;;;;14.67;14.17;;;12.80;99.90;;;;;;5070451;28;20614;-62
2023/09/23 02:19:30;;;;;;;14.13;13.63;;;12.80;99.90;;;;;;5070048;28;20237;-62
2023/09/23 02:21:57;;;;;;;14.63;14.13;;;12.70;99.90;;;;;;5067177;28;20209;-65
2023/09/23 02:24:24;;;;;;;17.30;16.70;;;12.70;99.90;;;;;;5070406;28;20211;-62
2023/09/23 02:26:50;;;;;;;15.40;14.90;;;12.70;99.90;;;;;;5070351;28;20222;-62
2023/09/23 02:29:17;;;;;;;15.70;15.10;;;12.60;99.90;;;;;;5070379;28;20223;-63
2023/09/23 02:31:47;;;;;;;16.20;15.60;;;12.60;99.90;;;;;;5070387;28;20315;-62
2023/09/23 02:34:16;;;;;;;16.20;15.60;;;12.60;99.90;;;;;;5070273;28;20211;-62
2023/09/23 02:36:43;;;;;;;16.27;15.67;;;12.60;99.90;;;;;;5070021;28;20239;-62
2023/09/23 02:39:15;;;;;;;15.67;15.17;;;12.60;99.90;;;;;;5070153;28;20215;-62
2023/09/23 02:41:45;;;;;;;14.93;14.43;;;12.60;99.90;;;;;;5069970;28;20737;-62
2023/09/23 02:44:14;;;;;;;15.70;15.20;;;12.60;99.90;;;;;;5070301;28;20211;-62
2023/09/23 02:46:41;;;;;;;14.97;14.47;;;12.60;99.90;;;;;;5067131;28;20207;-63
2023/09/23 02:49:10;;;;;;;15.17;14.67;;;12.60;99.90;;;;;;5070170;28;20303;-63
2023/09/23 02:51:37;;;;;;;15.30;14.77;;;12.60;99.90;;;;;;5069638;28;20226;-63
2023/09/23 02:54:05;;;;;;;16.53;15.93;;;12.60;99.90;;;;;;5070046;28;20211;-63
2023/09/23 02:56:34;;;;;;;14.37;13.87;;;12.60;99.90;;;;;;5069858;28;20242;-63
2023/09/23 02:59:03;;;;;;;16.60;16.00;;;12.60;99.90;;;;;;5069833;28;20219;-63
2023/09/23 03:01:30;;;;;;;15.70;15.20;;;12.60;99.90;;;;;;5066000;28;20218;-63
2023/09/23 03:04:06;;;;;;;15.97;15.47;;;12.50;99.90;;;;;;5069893;28;20570;-63
2023/09/23 03:06:38;;;;;;;15.30;14.80;;;12.40;99.90;;;;;;5069548;28;21015;-61
2023/09/23 03:09:08;;;;;;;15.53;15.03;;;12.40;99.90;;;;;;5069992;28;20207;-62
2023/09/23 03:11:42;;;;;;;16.00;15.50;;;12.40;99.90;;;;;;5069694;28;20227;-61
2023/09/23 03:14:12;;;;;;;15.13;14.53;;;12.30;99.90;;;;;;5069800;28;20239;-61
2023/09/23 03:16:44;;;;;;;15.33;14.83;;;12.30;99.90;;;;;;5069395;28;20211;-63
2023/09/23 03:19:14;;;;;;;16.10;15.57;;;12.30;99.90;;;;;;5069858;28;20294;-63
2023/09/23 03:21:45;;;;;;;14.83;14.33;;;12.20;99.90;;;;;;5068308;28;20195;-64
2023/09/23 03:24:13;;;;;;;15.57;15.07;;;12.30;99.90;;;;;;5069589;28;20211;-63
2023/09/23 03:26:40;;;;;;;16.77;16.20;;;12.30;99.90;;;;;;5069002;28;20252;-63
2023/09/23 03:29:08;;;;;;;16.73;16.13;;;12.30;99.90;;;;;;5069652;28;20558;-63
2023/09/23 03:31:35;;;;;;;15.73;15.23;;;12.30;99.90;;;;;;5069557;28;20234;-63
2023/09/23 03:34:03;;;;;;;16.57;15.97;;;12.30;99.90;;;;;;5069528;28;20670;-62
2023/09/23 03:36:31;;;;;;;14.95;14.45;;;12.30;99.90;;;;;;5069358;28;20235;-61
2023/09/23 03:39:00;;;;;;;16.40;15.83;;;12.40;99.90;;;;;;5069461;28;20246;-63
2023/09/23 03:41:28;;;;;;;20.70;19.97;;;12.40;99.90;;;;;;5069971;28;20651;-62
2023/09/23 03:43:54;;;;;;;19.77;19.07;;;12.40;99.90;;;;;;5068989;28;20665;-63
2023/09/23 03:46:21;;;;;;;16.57;15.97;;;12.30;99.90;;;;;;5069558;28;20207;-61
2023/09/23 03:48:48;;;;;;;17.07;16.47;;;12.40;99.90;;;;;;5069235;28;20203;-63
2023/09/23 03:51:15;;;;;;;19.27;18.60;;;12.40;99.90;;;;;;5064662;28;20654;-63
2023/09/23 03:53:44;;;;;;;16.45;15.88;;;12.40;99.90;;;;;;5066704;28;20207;-61
2023/09/23 03:56:12;;;;;;;17.08;16.48;;;12.30;99.90;;;;;;5067812;28;20677;-61
2023/09/23 03:58:39;;;;;;;15.43;14.93;;;12.20;99.90;;;;;;5069484;28;20233;-62
2023/09/23 04:01:13;;;;;;;15.87;15.37;;;12.20;99.90;;;;;;5069572;28;20618;-62
2023/09/23 04:03:40;;;;;;;15.77;15.17;;;12.20;99.90;;;;;;5071210;28;20213;-62
2023/09/23 04:06:07;;;;;;;16.50;15.90;;;12.20;99.90;;;;;;5069088;28;20206;-62
2023/09/23 04:08:34;;;;;;;17.60;17.02;;;12.20;99.90;;;;;;5068699;28;20215;-62
2023/09/23 04:11:03;;;;;;;17.27;16.67;;;12.10;99.90;;;;;;5056364;28;20686;-61
2023/09/23 04:13:32;;;;;;;23.48;22.67;;;12.10;99.90;;;;;;5052794;28;20212;-62
2023/09/23 04:16:01;;;;;;;22.10;21.33;;;12.10;99.90;;;;;;5064223;28;20218;-62
2023/09/23 04:18:28;;;;;;;21.97;21.20;;;12.10;99.90;;;;;;5072795;28;20234;-62
2023/09/23 04:20:55;;;;;;;20.05;19.38;;;12.10;99.90;;;;;;5069506;28;20697;-62
2023/09/23 04:23:22;;;;;;;20.47;19.77;;;12.10;99.90;;;;;;5068396;28;20208;-61
2023/09/23 04:25:49;;;;;;;22.50;21.70;;;12.10;99.90;;;;;;5072452;28;20297;-62
2023/09/23 04:28:16;;;;;;;20.75;20.05;;;12.10;99.90;;;;;;5072772;28;20207;-62
2023/09/23 04:30:44;;;;;;;26.27;25.33;;;12.20;99.90;;;;;;5071223;28;20707;-62
2023/09/23 04:33:12;;;;;;;22.13;21.33;;;12.10;99.90;;;;;;5072467;28;20217;-62
2023/09/23 04:35:39;;;;;;;21.53;20.83;;;12.10;99.90;;;;;;5072193;28;20215;-62
2023/09/23 04:38:06;;;;;;;20.23;19.53;;;12.00;99.90;;;;;;5072471;28;20213;-62
2023/09/23 04:40:33;;;;;;;22.20;21.40;;;12.10;99.90;;;;;;5072138;28;20720;-62
2023/09/23 04:43:00;;;;;;;20.73;20.03;;;12.00;99.90;;;;;;5072480;28;20574;-62
2023/09/23 04:45:27;;;;;;;24.17;23.37;;;12.00;99.90;;;;;;5067399;28;20204;-63
2023/09/23 04:47:55;;;;;;;20.77;20.07;;;12.00;99.90;;;;;;5071250;28;20294;-62
2023/09/23 04:50:24;;;;;;;22.20;21.40;;;12.00;99.90;;;;;;5061991;28;20231;-62
2023/09/23 04:52:52;;;;;;;19.17;18.50;;;11.90;99.90;;;;;;5052270;28;20234;-63
2023/09/23 04:55:19;;;;;;;22.73;21.93;;;11.90;99.90;;;;;;5057209;28;20214;-62
2023/09/23 04:57:45;;;;;;;19.10;18.43;;;11.80;99.90;;;;;;5052200;28;20220;-61
2023/09/23 05:00:19;;;;;;;19.40;18.73;;;11.80;99.90;;;;;;5053157;28;20603;-61
2023/09/23 05:02:48;;;;;;;16.37;15.83;;;11.80;99.90;;;;;;5070389;28;20214;-61
2023/09/23 05:05:16;;;;;;;16.63;16.03;;;11.80;99.90;;;;;;5069081;28;20214;-61
2023/09/23 05:07:43;;;;;;;16.73;16.17;;;11.80;99.90;;;;;;5072549;28;20298;-63
2023/09/23 05:10:11;;;;;;;19.33;18.67;;;11.80;99.90;;;;;;5069603;28;20721;-63
2023/09/23 05:12:38;;;;;;;18.48;17.85;;;11.80;99.90;;;;;;5068639;28;20284;-62
2023/09/23 05:15:06;;;;;;;18.33;17.70;;;11.80;99.90;;;;;;5069092;28;20204;-62
2023/09/23 05:17:33;;;;;;;18.93;18.30;;;11.70;99.90;;;;;;5069747;28;20247;-61
2023/09/23 05:20:00;;;;;;;14.83;14.33;;;11.70;99.90;;;;;;5072718;28;20249;-62
2023/09/23 05:22:28;;;;;;;18.23;17.60;;;11.70;99.90;;;;;;5068527;28;20203;-62
2023/09/23 05:24:57;;;;;;;17.53;16.93;;;11.60;99.90;;;;;;5072666;28;20282;-62
2023/09/23 05:27:24;;;;;;;15.07;14.50;;;11.60;99.90;;;;;;5067289;28;20215;-62
2023/09/23 05:29:53;;;;;;;15.73;15.20;;;11.70;99.90;;;;;;5069382;28;20231;-61
2023/09/23 05:32:20;;;;;;;15.83;15.30;;;11.60;99.90;;;;;;5072425;28;20223;-63
2023/09/23 05:34:51;;;;;;;19.00;18.33;;;11.70;99.90;;;;;;5071326;28;20210;-62
2023/09/23 05:37:17;;;;;;;17.73;17.13;;;11.70;99.90;;;;;;5069599;28;20235;-63
2023/09/23 05:39:46;;;;;;;15.73;15.23;;;11.70;99.90;;;;;;5068606;28;20696;-62
2023/09/23 05:42:15;;;;;;;18.07;17.47;;;11.70;99.90;;;;;;5069775;28;20234;-62
2023/09/23 05:44:43;;;;;;;16.27;15.67;;;11.60;99.90;;;;;;5069969;28;20215;-63
2023/09/23 05:47:10;;;;;;;14.98;14.45;;;11.70;99.90;;;;;;5067593;28;20211;-63
2023/09/23 05:49:38;;;;;;;16.60;16.02;;;11.70;99.90;;;;;;5070838;28;20775;-62
2023/09/23 05:52:06;;;;;;;21.30;20.57;;;11.70;99.90;;;;;;5067006;28;20231;-62
2023/09/23 05:54:33;;;;;;;16.23;15.63;;;11.70;99.90;;;;;;5066763;28;20225;-63
2023/09/23 05:57:01;;;;;;;14.83;14.33;;;11.70;99.90;;;;;;5069072;28;20211;-60
2023/09/23 05:59:28;;;;;;;12.63;12.23;;;11.80;99.90;;;;;;5065652;28;20271;-58
2023/09/23 06:01:55;;;;;;;14.67;14.17;;;12.10;99.90;;;;;;5072397;28;20320;-58
2023/09/23 06:04:22;;;;;;;15.37;14.87;;;12.20;99.90;;;;;;5066991;28;20491;-59
2023/09/23 06:06:49;;;;;;;14.17;13.67;;;12.30;99.90;;;;;;5071826;28;20205;-58
2023/09/23 06:09:16;;;;;;;15.57;15.07;;;12.40;99.90;;;;;;5067782;28;20215;-58
2023/09/23 06:11:43;;;;;;;16.63;16.03;;;12.50;99.90;;;;;;5071918;28;20713;-59
2023/09/23 06:14:12;;;;;;;14.97;14.47;;;12.70;99.90;;;;;;5071722;28;20211;-59
2023/09/23 06:16:39;;;;;;;14.65;14.15;;;12.70;99.90;;;;;;5065306;28;20253;-59
2023/09/23 06:19:06;;;;;;;14.83;14.23;;;12.80;99.90;;;;;;5071134;28;20286;-59
2023/09/23 06:21:33;;;;;;;15.20;14.70;;;12.80;99.90;;;;;;5072452;28;20298;-58
2023/09/23 06:24:00;;;;;;;15.77;15.27;;;12.80;99.90;;;;;;5075895;28;20242;-59
2023/09/23 06:26:27;;;;;;;15.05;14.55;;;12.80;99.90;;;;;;5070452;28;20558;-59
2023/09/23 06:28:53;;;;;;;15.18;14.57;;;12.70;99.90;;;;;;5072879;28;20203;-59
2023/09/23 06:31:21;;;;;;;14.77;14.27;;;12.80;99.90;;;;;;5071683;28;20230;-58
2023/09/23 06:33:48;;;;;;;14.57;14.07;;;12.90;99.90;;;;;;5067380;28;20567;-60
2023/09/23 06:36:15;;;;;;;16.97;16.27;;;13.00;99.90;;;;;;5069236;28;20214;-58
2023/09/23 06:38:42;;;;;;;15.98;15.48;;;13.00;99.90;;;;;;5075343;28;20207;-58
2023/09/23 06:41:08;;;;;;;13.63;13.13;;;13.00;99.90;;;;;;5068600;28;20557;-59
2023/09/23 06:43:36;;;;;;;14.67;14.17;;;13.00;99.90;;;;;;5071662;28;20250;-58
2023/09/23 06:46:03;;;;;;;11.50;11.10;;;13.60;99.90;;;;;;5069643;28;20210;-59
2023/09/23 06:48:31;;;;;;;14.13;13.63;;;14.20;99.90;;;;;;5067677;28;20280;-62
2023/09/23 06:51:00;;;;;;;15.10;14.60;;;14.60;99.90;;;;;;5070839;28;20590;-62
2023/09/23 06:53:27;;;;;;;13.93;13.43;;;14.10;99.90;;;;;;5069253;28;20214;-62
2023/09/23 06:55:54;;;;;;;14.30;13.80;;;13.50;99.90;;;;;;5070588;28;20207;-63
2023/09/23 06:58:21;;;;;;;14.70;14.20;;;13.20;99.90;;;;;;5069591;28;20214;-62
2023/09/23 07:00:48;;;;;;;17.43;16.83;;;13.10;99.90;;;;;;5070760;28;20317;-62
2023/09/23 07:03:15;;;;;;;15.13;14.63;;;12.90;99.90;;;;;;5071093;28;20552;-62
2023/09/23 07:05:44;;;;;;;16.00;15.40;;;12.80;99.90;;;;;;5068695;28;20203;-62
2023/09/23 07:08:11;;;;;;;17.30;16.70;;;12.80;99.90;;;;;;5072843;28;20218;-61
2023/09/23 07:10:38;;;;;;;15.20;14.70;;;12.80;99.90;;;;;;5064512;28;20230;-62
2023/09/23 07:13:05;;;;;;;17.33;16.73;;;12.70;99.90;;;;;;5066708;28;20235;-61
2023/09/23 07:15:35;;;;;;;15.33;14.73;;;12.80;99.90;;;;;;5078873;28;20303;-63
2023/09/23 07:18:03;;;;;;;15.43;14.93;;;12.70;99.90;;;;;;5077842;28;20310;-63
2023/09/23 07:20:30;;;;;;;14.27;13.77;;;12.80;99.90;;;;;;5079021;28;20218;-63
2023/09/23 07:22:58;;;;;;;16.10;15.60;;;12.80;99.90;;;;;;5080266;28;20292;-62
2023/09/23 07:25:25;;;;;;;15.67;15.17;;;13.00;99.90;;;;;;5070725;28;20211;-63
2023/09/23 07:27:51;;;;;;;15.87;15.37;;;13.10;99.90;;;;;;5071629;28;20606;-62
2023/09/23 07:30:18;;;;;;;16.63;16.03;;;13.20;99.90;;;;;;5070538;28;20227;-63
2023/09/23 07:32:45;;;;;;;14.77;14.27;;;13.30;99.90;;;;;;5070989;28;20219;-62
2023/09/23 07:35:12;;;;;;;16.10;15.57;;;13.40;99.90;;;;;;5066552;28;20208;-62
2023/09/23 07:37:39;;;;;;;15.67;15.17;;;13.50;99.90;;;;;;5068216;28;20204;-63
2023/09/23 07:40:08;;;;;;;15.23;14.63;;;13.70;99.90;;;;;;5073683;28;20230;-62
2023/09/23 07:42:35;;;;;;;18.23;17.60;;;13.90;99.90;;;;;;5070271;28;20208;-62
2023/09/23 07:45:02;;;;;;;14.47;13.97;;;14.10;99.90;;;;;;5065837;28;20595;-62
2023/09/23 07:47:29;;;;;;;15.07;14.57;;;14.20;99.90;;;;;;5074673;28;20298;-62
2023/09/23 07:49:57;;;;;;;13.60;13.13;;;14.40;99.90;;;;;;5068098;28;20245;-62
2023/09/23 07:52:24;;;;;;;12.47;12.07;;;14.60;99.90;;;;;;5072869;28;20309;-64
2023/09/23 07:54:51;;;;;;;11.00;10.60;;;14.80;99.90;;;;;;5067665;28;20207;-62
2023/09/23 07:57:19;;;;;;;11.87;11.47;;;15.00;99.90;;;;;;5073505;28;20516;-63
2023/09/23 07:59:46;;;;;;;12.90;12.50;;;15.30;99.90;;;;;;5072773;28;20237;-63
2023/09/23 08:02:13;;;;;;;13.60;13.10;;;15.50;99.90;;;;;;5070908;28;20212;-62
2023/09/23 08:04:40;;;;;;;12.00;11.50;;;15.70;99.90;;;;;;5071582;28;20214;-62
2023/09/23 08:07:07;;;;;;;12.10;11.63;;;15.90;99.90;;;;;;5070110;28;20266;-63
2023/09/23 08:09:34;;;;;;;12.50;11.90;;;16.10;99.90;;;;;;5071210;28;20628;-63
2023/09/23 08:12:01;;;;;;;12.20;11.80;;;16.20;99.90;;;;;;5069295;28;20234;-63
2023/09/23 08:14:29;;;;;;;11.77;11.37;;;16.30;99.90;;;;;;5072962;28;20763;-63
2023/09/23 08:16:56;;;;;;;12.17;11.77;;;16.50;99.90;;;;;;5071969;28;20238;-62
2023/09/23 08:19:24;;;;;;;12.53;12.13;;;16.60;99.90;;;;;;5080352;28;20231;-63
2023/09/23 08:21:51;;;;;;;12.70;12.27;;;16.80;99.90;;;;;;5080302;28;20199;-63
2023/09/23 08:24:17;;;;;;;13.47;12.97;;;16.90;99.90;;;;;;5078827;28;20225;-62
2023/09/23 08:26:44;;;;;;;12.13;11.73;;;17.10;99.90;;;;;;5077429;28;20231;-63
2023/09/23 08:29:11;;;;;;;12.07;11.67;;;17.30;99.90;;;;;;5077221;28;20561;-62
2023/09/23 08:31:39;;;;;;;12.40;12.00;;;17.50;99.90;;;;;;5072375;28;20207;-64
2023/09/23 08:34:09;;;;;;;11.52;11.13;;;17.60;99.90;;;;;;5069895;28;20199;-64
2023/09/23 08:36:36;;;;;;;10.83;10.47;;;17.70;99.90;;;;;;5073363;28;20199;-62
2023/09/23 08:39:05;;;;;;;12.82;12.43;;;17.90;99.90;;;;;;5072813;28;20653;-63
2023/09/23 08:41:33;;;;;;;12.98;12.48;;;17.90;99.90;;;;;;5072894;28;20230;-63
2023/09/23 08:44:04;;;;;;;11.40;11.00;;;18.00;99.90;;;;;;5074137;28;20218;-63
2023/09/23 08:46:32;;;;;;;12.10;11.70;;;18.10;99.90;;;;;;5073332;28;20213;-63
2023/09/23 08:49:01;;;;;;;11.40;11.00;;;18.10;99.90;;;;;;5069354;28;20666;-62
2023/09/23 08:51:28;;;;;;;12.07;11.67;;;18.10;99.90;;;;;;5067836;28;20211;-63
2023/09/23 08:53:55;;;;;;;12.02;11.63;;;18.10;99.90;;;;;;5071736;28;20724;-63
2023/09/23 08:56:23;;;;;;;12.57;12.18;;;18.20;99.90;;;;;;5070247;28;20205;-63
2023/09/23 08:58:50;;;;;;;11.93;11.53;;;18.30;99.90;;;;;;5072734;28;20652;-63
2023/09/23 09:01:17;;;;;;;12.48;12.07;;;18.50;99.90;;;;;;5072502;28;20666;-62
2023/09/23 09:03:45;;;;;;;11.93;11.52;;;18.70;99.90;;;;;;5070280;28;20214;-64
2023/09/23 09:06:21;;;;;;;11.83;11.43;;;18.70;99.90;;;;;;5072740;28;20257;-65
2023/09/23 09:08:48;;;;;;;12.43;12.02;;;18.90;99.90;;;;;;5071204;28;20605;-63
2023/09/23 09:11:22;;;;;;;12.70;12.30;;;19.10;99.90;;;;;;5072324;28;20675;-64
2023/09/23 09:13:49;;;;;;;12.87;12.47;;;19.20;99.90;;;;;;5068491;28;20266;-64
2023/09/23 09:16:16;;;;;;;13.80;13.30;;;19.50;99.90;;;;;;5069760;28;20211;-63
2023/09/23 09:18:43;;;;;;;13.20;12.75;;;19.70;99.90;;;;;;5073164;28;20203;-63
2023/09/23 09:21:10;;;;;;;13.75;13.25;;;19.60;99.90;;;;;;5063603;28;20232;-64
2023/09/23 09:23:38;;;;;;;16.30;15.65;;;19.50;99.90;;;;;;5069080;28;20215;-61
2023/09/23 09:26:05;;;;;;;13.80;13.30;;;19.60;99.90;;;;;;5071946;28;20206;-63
2023/09/23 09:28:32;;;;;;;13.48;12.98;;;19.40;99.90;;;;;;5072319;28;20213;-63
2023/09/23 09:30:59;;;;;;;11.75;11.35;;;19.60;99.90;;;;;;5071977;28;20253;-64
2023/09/23 09:33:29;;;;;;;12.95;12.55;;;19.50;99.90;;;;;;5072229;28;20338;-62
2023/09/23 09:35:56;;;;;;;13.18;12.68;;;19.40;99.90;;;;;;5073766;28;20242;-63
2023/09/23 09:38:25;;;;;;;13.27;12.88;;;19.50;99.90;;;;;;5074675;28;20577;-64
2023/09/23 09:41:02;;;;;;;12.43;12.03;;;19.70;99.90;;;;;;5073838;28;20231;-64
2023/09/23 09:43:30;;;;;;;13.20;12.73;;;19.80;99.90;;;;;;5058055;28;20234;-64
2023/09/23 09:45:59;;;;;;;11.93;11.52;;;20.00;99.90;;;;;;5053148;28;20235;-64
2023/09/23 09:48:30;;;;;;;12.00;11.60;;;20.20;99.90;;;;;;5054123;28;20227;-64
2023/09/23 09:50:57;;;;;;;11.27;10.87;;;20.20;99.90;;;;;;5068610;28;20234;-65
2023/09/23 09:53:25;;;;;;;13.13;12.73;;;20.10;99.90;;;;;;5072277;28;20610;-64
2023/09/23 09:55:56;;;;;;;13.75;13.25;;;20.20;99.90;;;;;;5071861;28;20218;-63
2023/09/23 09:58:23;;;;;;;13.48;12.98;;;20.20;99.90;;;;;;5072005;28;20682;-63
2023/09/23 10:00:52;;;;;;;12.38;11.98;;;20.30;99.90;;;;;;5071276;28;20227;-63
2023/09/23 10:03:27;;;;;;;11.52;11.13;;;20.40;99.90;;;;;;5071933;28;20205;-62
2023/09/23 10:06:00;;;;;;;14.07;13.57;;;20.30;99.90;;;;;;5071664;28;20723;-62
2023/09/23 10:08:36;;;;;;;13.30;12.80;;;20.30;99.90;;;;;;5072182;28;20212;-63
2023/09/23 10:11:08;;;;;;;13.18;12.77;;;20.10;99.90;;;;;;5071708;28;20658;-62
2023/09/23 10:13:35;;;;;;;12.43;12.02;;;20.10;99.90;;;;;;5071587;28;20231;-64
2023/09/23 10:16:05;;;;;;;13.48;13.02;;;20.00;99.90;;;;;;5071325;28;20282;-64
2023/09/23 10:18:37;;;;;;;13.63;13.13;;;20.30;99.90;;;;;;5070307;28;20961;-63
2023/09/23 10:21:04;;;;;;;13.10;12.60;;;20.50;99.90;;;;;;5071313;28;20293;-63
2023/09/23 10:23:34;;;;;;;12.18;11.77;;;20.70;99.90;;;;;;5071213;28;20191;-64
2023/09/23 10:26:14;;;;;;;12.20;11.80;;;20.80;99.90;;;;;;5071277;28;20268;-63
2023/09/23 10:28:43;;;;;;;11.35;10.95;;;20.80;99.90;;;;;;5074443;28;20207;-63
2023/09/23 10:31:13;;;;;;;11.98;11.57;;;21.00;99.90;;;;;;5075060;28;20223;-63
2023/09/23 10:33:41;;;;;;;11.95;11.55;;;21.00;99.90;;;;;;5067400;28;20227;-64
2023/09/23 10:36:08;;;;;;;12.65;12.25;;;21.00;99.90;;;;;;5075642;28;20344;-63
2023/09/23 10:38:38;;;;;;;13.95;13.45;;;21.20;99.90;;;;;;5071049;28;20658;-63
2023/09/23 10:41:05;;;;;;;12.90;12.48;;;21.20;99.90;;;;;;5071717;28;20322;-63
2023/09/23 10:43:34;;;;;;;13.13;12.73;;;21.30;99.90;;;;;;5070921;28;20199;-66
2023/09/23 10:46:02;;;;;;;12.90;12.50;;;21.30;99.90;;;;;;5070847;28;20238;-65
2023/09/23 10:48:29;;;;;;;12.73;12.32;;;21.40;99.90;;;;;;5074449;28;20565;-64
2023/09/23 10:50:56;;;;;;;13.30;12.90;;;21.50;99.90;;;;;;5071242;28;20231;-63
2023/09/23 10:53:24;;;;;;;13.65;13.15;;;21.50;99.90;;;;;;5070645;28;20231;-65
2023/09/23 10:55:52;;;;;;;13.55;13.05;;;21.40;99.90;;;;;;5070952;28;20203;-63
2023/09/23 10:58:19;;;;;;;14.02;13.52;;;21.40;99.90;;;;;;5069850;28;20229;-64
2023/09/23 11:00:48;;;;;;;13.70;13.25;;;21.30;99.90;;;;;;5068136;28;20231;-63
2023/09/23 11:03:17;;;;;;;13.18;12.68;;;21.20;99.90;;;;;;5070866;28;20211;-63
2023/09/23 11:05:46;;;;;;;13.63;13.13;;;21.20;99.90;;;;;;5070802;28;20604;-64
2023/09/23 11:08:15;;;;;;;14.10;13.60;;;21.30;99.90;;;;;;5071014;28;20211;-65
2023/09/23 11:10:43;;;;;;;14.52;14.02;;;21.30;99.90;;;;;;5070921;28;20272;-64
2023/09/23 11:13:11;;;;;;;13.20;12.70;;;21.00;99.90;;;;;;5074141;28;20242;-64
2023/09/23 11:15:39;;;;;;;15.65;15.10;;;21.10;99.90;;;;;;5074955;28;20211;-64
2023/09/23 11:18:09;;;;;;;15.77;15.27;;;21.20;99.90;;;;;;5072761;28;20209;-65
2023/09/23 11:20:40;;;;;;;14.02;13.52;;;20.80;99.90;;;;;;5066732;28;20708;-65
2023/09/23 11:23:10;;;;;;;13.48;13.07;;;20.50;99.90;;;;;;5067778;28;20206;-65
2023/09/23 11:25:38;;;;;;;15.00;14.50;;;20.50;99.90;;;;;;5066337;28;20195;-65
2023/09/23 11:28:05;;;;;;;12.55;12.15;;;20.40;99.90;;;;;;5067192;28;20212;-64
2023/09/23 11:30:32;;;;;;;12.95;12.55;;;20.20;99.90;;;;;;5071082;28;20218;-65
2023/09/23 11:32:59;;;;;;;14.25;13.75;;;20.40;99.90;;;;;;5064071;28;20255;-64
2023/09/23 11:35:28;;;;;;;13.13;12.73;;;20.60;99.90;;;;;;5064300;28;20287;-63
2023/09/23 11:37:55;;;;;;;12.30;11.90;;;20.50;99.90;;;;;;5081319;28;20211;-64
2023/09/23 11:40:23;;;;;;;12.60;12.20;;;20.60;99.90;;;;;;5091945;28;20226;-64
2023/09/23 11:42:51;;;;;;;12.75;12.35;;;20.50;99.90;;;;;;5090626;28;20234;-64
2023/09/23 11:45:18;;;;;;;16.33;15.75;;;20.60;99.90;;;;;;5087588;28;20241;-64
2023/09/23 11:47:45;;;;;;;12.70;12.27;;;20.80;99.90;;;;;;5084609;28;20211;-64
2023/09/23 11:50:12;;;;;;;15.15;14.65;;;20.80;99.90;;;;;;5085790;28;20227;-64
2023/09/23 11:52:40;;;;;;;13.50;13.07;;;20.60;99.90;;;;;;5072143;28;20199;-63
2023/09/23 11:55:10;;;;;;;11.77;11.38;;;20.40;99.90;;;;;;5067781;28;20240;-65
2023/09/23 11:57:37;;;;;;;13.48;13.05;;;20.60;99.90;;;;;;5068798;28;20208;-63
2023/09/23 12:00:08;;;;;;;11.60;11.20;;;20.80;99.90;;;;;;5070338;28;20226;-64
2023/09/23 12:02:34;;;;;;;13.70;13.20;;;21.00;99.90;;;;;;5070255;28;20674;-63
2023/09/23 12:05:01;;;;;;;13.65;13.15;;;21.20;99.90;;;;;;5072354;28;20206;-63
2023/09/23 12:07:28;;;;;;;13.73;13.23;;;21.30;99.90;;;;;;5073138;28;20207;-64
2023/09/23 12:09:56;;;;;;;12.07;11.68;;;21.20;99.90;;;;;;5070027;28;20231;-64
2023/09/23 12:12:23;;;;;;;12.25;11.85;;;21.10;99.90;;;;;;5073057;28;20294;-65
2023/09/23 12:14:50;;;;;;;12.57;12.18;;;20.90;99.90;;;;;;5073063;28;20226;-64
2023/09/23 12:17:17;;;;;;;13.07;12.68;;;20.70;99.90;;;;;;5069407;28;20265;-64
2023/09/23 12:19:44;;;;;;;13.18;12.75;;;20.60;99.90;;;;;;5073499;28;20581;-64
2023/09/23 12:22:12;;;;;;;13.97;13.47;;;20.80;99.90;;;;;;5073249;28;20230;-64
2023/09/23 12:24:39;;;;;;;14.45;13.95;;;20.80;99.90;;;;;;5071955;28;20210;-64
2023/09/23 12:27:08;;;;;;;14.93;14.43;;;20.60;99.90;;;;;;5073736;28;20209;-64
2023/09/23 12:29:35;;;;;;;33.55;32.05;;;20.30;99.90;;;;;;5073231;28;20322;-64
2023/09/23 12:32:02;;;;;;;16.73;16.13;;;20.10;99.90;;;;;;5073256;28;20207;-64